createdAt,value
2023-06-03T00:00:46.392Z,4.93
2023-06-03T00:01:48.888Z,4.03
2023-06-03T00:02:54.120Z,4.90
2023-06-03T00:03:56.440Z,4.80
2023-06-03T00:05:02.260Z,5.27
2023-06-03T00:06:04.028Z,5.37
2023-06-03T00:07:05.703Z,5.17
2023-06-03T00:08:07.871Z,4.57
2023-06-03T00:09:10.709Z,5.87
2023-06-03T00:10:12.514Z,5.07
2023-06-03T00:11:15.535Z,5.40
2023-06-03T00:12:17.235Z,4.83
2023-06-03T00:13:18.833Z,5.37
2023-06-03T00:14:20.539Z,5.00
2023-06-03T00:15:22.217Z,5.60
2023-06-03T00:16:24.178Z,5.03
2023-06-03T00:17:28.904Z,5.53
2023-06-03T00:18:31.574Z,4.67
2023-06-03T00:19:33.192Z,4.47
2023-06-03T00:20:37.366Z,4.80
2023-06-03T00:21:41.395Z,5.07
2023-06-03T00:22:42.961Z,4.90
2023-06-03T00:23:47.324Z,5.97
2023-06-03T00:24:49.408Z,5.27
2023-06-03T00:25:51.943Z,5.77
2023-06-03T00:26:53.706Z,4.80
2023-06-03T00:27:56.075Z,4.60
2023-06-03T00:28:57.933Z,5.10
2023-06-03T00:29:59.581Z,4.90
2023-06-03T00:31:01.541Z,4.50
2023-06-03T00:32:03.332Z,4.60
2023-06-03T00:33:06.025Z,5.00
2023-06-03T00:34:07.995Z,4.90
2023-06-03T00:35:10.755Z,4.40
2023-06-03T00:36:12.299Z,4.73
2023-06-03T00:37:13.967Z,5.20
2023-06-03T00:38:15.715Z,4.43
2023-06-03T00:39:17.439Z,4.83
2023-06-03T00:40:19.232Z,5.43
2023-06-03T00:41:20.940Z,4.53
2023-06-03T00:42:22.641Z,4.87
2023-06-03T00:43:24.353Z,4.83
2023-06-03T00:44:27.243Z,5.43
2023-06-03T00:45:29.144Z,5.13
2023-06-03T00:46:33.997Z,4.60
2023-06-03T00:47:35.876Z,4.93
2023-06-03T00:48:38.949Z,5.07
2023-06-03T00:49:41.105Z,5.30
2023-06-03T00:50:42.931Z,5.30
2023-06-03T00:51:44.792Z,4.67
2023-06-03T00:52:47.427Z,5.20
2023-06-03T00:53:49.699Z,5.20
2023-06-03T00:54:52.631Z,5.03
2023-06-03T00:55:54.225Z,5.80
2023-06-03T00:56:57.616Z,5.23
2023-06-03T00:57:59.535Z,4.93
2023-06-03T00:59:01.968Z,6.17
2023-06-03T01:00:03.964Z,6.33
2023-06-03T01:01:06.237Z,6.80
2023-06-03T01:02:08.329Z,6.10
2023-06-03T01:03:15.011Z,5.50
2023-06-03T01:04:18.537Z,5.00
2023-06-03T01:05:20.244Z,5.27
2023-06-03T01:06:30.302Z,4.43
2023-06-03T01:07:52.479Z,4.10
2023-06-03T01:09:12.797Z,5.37
2023-06-03T01:10:22.654Z,5.67
2023-06-03T01:11:43.301Z,5.53
2023-06-03T01:12:54.354Z,5.17
2023-06-03T01:13:59.868Z,5.00
2023-06-03T01:15:11.863Z,4.60
2023-06-03T01:16:14.296Z,4.93
2023-06-03T01:17:17.757Z,5.10
2023-06-03T01:18:20.108Z,4.90
2023-06-03T01:19:35.465Z,5.50
2023-06-03T01:20:37.178Z,5.37
2023-06-03T01:21:39.877Z,4.20
2023-06-03T01:22:42.930Z,4.90
2023-06-03T01:23:45.383Z,4.57
2023-06-03T01:24:49.405Z,4.50
2023-06-03T01:25:53.308Z,5.40
2023-06-03T01:26:56.993Z,6.07
2023-06-03T01:27:58.824Z,6.13
2023-06-03T01:29:00.686Z,5.13
2023-06-03T01:30:05.173Z,5.10
2023-06-03T01:31:07.797Z,5.00
2023-06-03T01:32:14.025Z,5.53
2023-06-03T01:33:16.756Z,4.80
2023-06-03T01:34:18.549Z,5.23
2023-06-03T01:35:20.726Z,5.67
2023-06-03T01:36:22.345Z,4.87
2023-06-03T01:37:23.973Z,5.33
2023-06-03T01:38:26.062Z,4.90
2023-06-03T01:39:28.852Z,4.63
2023-06-03T01:40:31.677Z,4.93
2023-06-03T01:41:33.673Z,4.77
2023-06-03T01:42:35.496Z,5.07
2023-06-03T01:43:37.340Z,5.07
2023-06-03T01:44:39.170Z,5.10
2023-06-03T01:45:41.249Z,5.30
2023-06-03T01:46:42.948Z,4.80
2023-06-03T01:47:44.898Z,4.93
2023-06-03T01:48:46.543Z,4.37
2023-06-03T01:49:48.316Z,4.63
2023-06-03T01:50:50.129Z,4.83
2023-06-03T01:51:51.834Z,4.93
2023-06-03T01:52:53.413Z,4.13
2023-06-03T01:53:54.914Z,5.33
2023-06-03T01:54:56.923Z,4.87
2023-06-03T01:55:58.740Z,4.80
2023-06-03T01:57:01.505Z,4.90
2023-06-03T01:58:04.258Z,5.60
2023-06-03T01:59:06.094Z,5.70
2023-06-03T02:00:08.256Z,6.00
2023-06-03T02:01:09.958Z,5.03
2023-06-03T02:02:11.857Z,5.20
2023-06-03T02:03:13.708Z,6.03
2023-06-03T02:04:15.744Z,5.93
2023-06-03T02:05:17.355Z,5.97
2023-06-03T02:06:19.271Z,6.70
2023-06-03T02:07:21.820Z,5.50
2023-06-03T02:08:23.383Z,5.43
2023-06-03T02:09:28.566Z,5.23
2023-06-03T02:10:30.565Z,5.77
2023-06-03T02:11:32.205Z,5.10
2023-06-03T02:12:33.967Z,4.43
2023-06-03T02:13:35.665Z,4.90
2023-06-03T02:14:39.063Z,5.87
2023-06-03T02:15:42.509Z,4.40
2023-06-03T02:16:44.304Z,4.13
2023-06-03T02:17:46.029Z,4.60
2023-06-03T02:18:47.657Z,4.97
2023-06-03T02:19:50.450Z,4.60
2023-06-03T02:20:53.374Z,5.37
2023-06-03T02:21:58.536Z,5.50
2023-06-03T02:23:02.797Z,5.70
2023-06-03T02:24:04.567Z,4.53
2023-06-03T02:25:07.717Z,5.93
2023-06-03T02:26:09.410Z,5.00
2023-06-03T02:27:11.744Z,4.90
2023-06-03T02:28:14.022Z,5.30
2023-06-03T02:29:15.621Z,5.13
2023-06-03T02:30:17.356Z,4.77
2023-06-03T02:31:19.144Z,5.63
2023-06-03T02:32:21.359Z,5.40
2023-06-03T02:33:23.244Z,5.47
2023-06-03T02:34:24.923Z,4.70
2023-06-03T02:35:28.759Z,5.20
2023-06-03T02:36:30.454Z,5.40
2023-06-03T02:37:32.025Z,5.70
2023-06-03T02:38:34.036Z,5.40
2023-06-03T02:39:36.788Z,4.93
2023-06-03T02:40:41.061Z,5.43
2023-06-03T02:41:44.841Z,4.93
2023-06-03T02:42:46.653Z,5.43
2023-06-03T02:43:48.231Z,5.50
2023-06-03T02:44:50.631Z,5.40
2023-06-03T02:45:52.401Z,5.93
2023-06-03T02:46:54.048Z,5.00
2023-06-03T02:47:55.711Z,5.23
2023-06-03T02:48:57.866Z,5.47
2023-06-03T02:49:59.594Z,5.77
2023-06-03T02:51:01.525Z,5.97
2023-06-03T02:52:03.158Z,5.77
2023-06-03T02:53:04.923Z,5.57
2023-06-03T02:54:06.590Z,4.60
2023-06-03T02:55:09.117Z,5.40
2023-06-03T02:56:10.831Z,6.37
2023-06-03T02:57:12.703Z,6.60
2023-06-03T02:58:15.248Z,5.33
2023-06-03T02:59:16.909Z,5.70
2023-06-03T03:00:18.763Z,6.13
2023-06-03T03:01:20.556Z,6.30
2023-06-03T03:02:22.482Z,5.60
2023-06-03T03:03:24.333Z,6.30
2023-06-03T03:04:27.806Z,6.33
2023-06-03T03:05:31.910Z,5.70
2023-06-03T03:06:38.229Z,6.00
2023-06-03T03:07:40.247Z,5.93
2023-06-03T03:08:41.817Z,6.00
2023-06-03T03:09:43.451Z,6.40
2023-06-03T03:10:45.059Z,5.70
2023-06-03T03:11:46.630Z,6.83
2023-06-03T03:12:48.350Z,5.47
2023-06-03T03:13:50.970Z,5.97
2023-06-03T03:14:52.772Z,5.83
2023-06-03T03:15:54.489Z,6.20
2023-06-03T03:16:57.242Z,6.23
2023-06-03T03:17:58.900Z,5.90
2023-06-03T03:19:01.337Z,6.17
2023-06-03T03:20:03.370Z,6.10
2023-06-03T03:21:06.008Z,5.93
2023-06-03T03:22:07.992Z,6.17
2023-06-03T03:23:13.009Z,6.00
2023-06-03T03:24:14.690Z,6.03
2023-06-03T03:25:16.335Z,5.67
2023-06-03T03:26:22.430Z,6.43
2023-06-03T03:27:24.141Z,7.40
2023-06-03T03:28:25.861Z,6.03
2023-06-03T03:29:29.232Z,7.17
2023-06-03T03:30:31.091Z,6.10
2023-06-03T03:31:33.673Z,7.50
2023-06-03T03:32:37.114Z,6.20
2023-06-03T03:33:38.782Z,6.43
2023-06-03T03:34:40.886Z,6.03
2023-06-03T03:35:44.569Z,7.30
2023-06-03T03:36:47.315Z,5.70
2023-06-03T03:37:51.347Z,6.80
2023-06-03T03:39:06.381Z,6.23
2023-06-03T03:40:19.083Z,6.17
2023-06-03T03:41:21.332Z,6.00
2023-06-03T03:42:23.189Z,6.33
2023-06-03T03:43:25.661Z,6.00
2023-06-03T03:44:28.870Z,5.83
2023-06-03T03:45:31.811Z,6.57
2023-06-03T03:46:33.618Z,7.00
2023-06-03T03:47:36.728Z,6.30
2023-06-03T03:48:38.305Z,6.50
2023-06-03T03:49:41.166Z,5.83
2023-06-03T03:50:45.034Z,6.10
2023-06-03T03:51:46.999Z,5.67
2023-06-03T03:52:49.163Z,5.60
2023-06-03T03:53:51.241Z,7.00
2023-06-03T03:54:53.229Z,6.67
2023-06-03T03:55:56.046Z,6.17
2023-06-03T03:56:58.056Z,5.70
2023-06-03T03:58:19.580Z,6.50
2023-06-03T03:59:21.196Z,6.63
2023-06-03T04:00:23.188Z,5.67
2023-06-03T04:01:25.467Z,6.40
2023-06-03T04:02:27.255Z,6.33
2023-06-03T04:03:31.430Z,7.03
2023-06-03T04:04:45.107Z,6.47
2023-06-03T04:05:47.813Z,6.73
2023-06-03T04:06:49.524Z,5.87
2023-06-03T04:07:51.257Z,6.27
2023-06-03T04:08:53.153Z,6.40
2023-06-03T04:09:54.753Z,5.73
2023-06-03T04:11:00.325Z,6.13
2023-06-03T04:12:03.879Z,7.77
2023-06-03T04:13:07.518Z,6.70
2023-06-03T04:14:11.796Z,5.70
2023-06-03T04:15:13.900Z,7.23
2023-06-03T04:16:46.214Z,7.00
2023-06-03T04:17:48.173Z,7.50
2023-06-03T04:18:49.771Z,6.80
2023-06-03T04:19:51.304Z,6.00
2023-06-03T04:20:57.236Z,6.00
2023-06-03T04:21:59.318Z,6.90
2023-06-03T04:23:04.620Z,6.37
2023-06-03T04:24:06.796Z,6.40
2023-06-03T04:25:10.366Z,7.20
2023-06-03T04:26:14.161Z,8.93
2023-06-03T04:27:16.187Z,9.60
2023-06-03T04:28:17.879Z,8.27
2023-06-03T04:29:20.090Z,7.47
2023-06-03T04:30:22.231Z,6.30
2023-06-03T04:31:23.979Z,6.40
2023-06-03T04:32:25.757Z,7.20
2023-06-03T04:33:27.687Z,7.13
2023-06-03T04:34:30.675Z,6.50
2023-06-03T04:35:32.266Z,6.80
2023-06-03T04:36:33.900Z,7.07
2023-06-03T04:37:36.557Z,5.80
2023-06-03T04:38:38.101Z,6.70
2023-06-03T04:39:39.884Z,7.60
2023-06-03T04:40:41.716Z,6.30
2023-06-03T04:41:44.108Z,6.73
2023-06-03T04:42:47.613Z,7.00
2023-06-03T04:43:54.352Z,6.13
2023-06-03T04:44:59.588Z,7.17
2023-06-03T04:46:01.643Z,6.53
2023-06-03T04:47:03.267Z,5.93
2023-06-03T04:48:06.560Z,6.73
2023-06-03T04:49:10.058Z,7.03
2023-06-03T04:50:12.156Z,6.47
2023-06-03T04:51:14.381Z,6.63
2023-06-03T04:52:16.314Z,6.10
2023-06-03T04:53:18.177Z,6.47
2023-06-03T04:54:25.063Z,5.53
2023-06-03T04:55:26.871Z,6.17
2023-06-03T04:56:30.545Z,6.07
2023-06-03T04:57:33.923Z,5.73
2023-06-03T04:58:36.958Z,7.00
2023-06-03T04:59:38.679Z,7.50
2023-06-03T05:00:43.596Z,6.10
2023-06-03T05:01:46.252Z,6.70
2023-06-03T05:02:56.510Z,6.17
2023-06-03T05:03:58.332Z,5.13
2023-06-03T05:05:00.103Z,5.80
2023-06-03T05:06:02.914Z,6.50
2023-06-03T05:07:04.612Z,6.40
2023-06-03T05:08:06.419Z,6.90
2023-06-03T05:09:11.168Z,6.03
2023-06-03T05:10:14.625Z,7.10
2023-06-03T05:11:16.804Z,6.53
2023-06-03T05:12:19.951Z,6.67
2023-06-03T05:13:21.806Z,7.00
2023-06-03T05:14:23.725Z,5.83
2023-06-03T05:15:27.357Z,6.97
2023-06-03T05:16:29.239Z,6.80
2023-06-03T05:17:31.348Z,6.70
2023-06-03T05:18:33.120Z,6.33
2023-06-03T05:19:35.145Z,6.87
2023-06-03T05:20:36.984Z,6.90
2023-06-03T05:21:38.798Z,6.27
2023-06-03T05:22:40.707Z,6.47
2023-06-03T05:23:42.620Z,6.60
2023-06-03T05:24:44.517Z,6.80
2023-06-03T05:25:46.264Z,6.93
2023-06-03T05:26:48.009Z,6.77
2023-06-03T05:28:01.999Z,6.33
2023-06-03T05:29:05.371Z,5.90
2023-06-03T05:30:07.372Z,6.00
2023-06-03T05:31:09.086Z,6.07
2023-06-03T05:32:10.823Z,6.13
2023-06-03T05:33:25.382Z,6.60
2023-06-03T05:34:27.034Z,6.30
2023-06-03T05:35:29.179Z,6.23
2023-06-03T05:36:31.654Z,6.57
2023-06-03T05:37:33.511Z,6.50
2023-06-03T05:38:35.494Z,6.57
2023-06-03T05:39:37.414Z,6.10
2023-06-03T05:40:39.892Z,6.57
2023-06-03T05:41:41.728Z,5.60
2023-06-03T05:42:43.906Z,6.30
2023-06-03T05:43:45.647Z,7.00
2023-06-03T05:44:47.369Z,6.50
2023-06-03T05:45:49.084Z,6.50
2023-06-03T05:46:51.268Z,6.13
2023-06-03T05:47:53.089Z,7.00
2023-06-03T05:48:54.689Z,7.33
2023-06-03T05:49:57.074Z,8.17
2023-06-03T05:50:58.901Z,7.03
2023-06-03T05:52:00.568Z,6.67
2023-06-03T05:53:03.028Z,6.57
2023-06-03T05:54:05.915Z,5.70
2023-06-03T05:55:08.012Z,5.30
2023-06-03T05:56:09.729Z,5.30
2023-06-03T05:57:11.656Z,4.87
2023-06-03T05:58:13.251Z,5.60
2023-06-03T05:59:14.993Z,5.20
2023-06-03T06:00:16.941Z,6.40
2023-06-03T06:01:18.852Z,6.63
2023-06-03T06:02:20.632Z,5.53
2023-06-03T06:03:22.617Z,5.80
2023-06-03T06:04:24.438Z,6.53
2023-06-03T06:05:26.266Z,4.77
2023-06-03T06:06:28.036Z,5.50
2023-06-03T06:07:30.276Z,5.47
2023-06-03T06:08:32.502Z,6.33
2023-06-03T06:09:39.049Z,5.60
2023-06-03T06:10:41.420Z,4.40
2023-06-03T06:11:43.640Z,5.13
2023-06-03T06:12:45.272Z,5.43
2023-06-03T06:13:47.107Z,5.23
2023-06-03T06:14:48.840Z,5.00
2023-06-03T06:16:01.254Z,5.17
2023-06-03T06:17:03.412Z,4.77
2023-06-03T06:18:08.659Z,5.40
2023-06-03T06:19:10.357Z,5.00
2023-06-03T06:20:12.614Z,4.30
2023-06-03T06:21:17.124Z,5.10
2023-06-03T06:22:19.930Z,5.00
2023-06-03T06:23:21.620Z,5.73
2023-06-03T06:24:23.335Z,4.67
2023-06-03T06:25:25.102Z,5.30
2023-06-03T06:26:27.236Z,5.00
2023-06-03T06:27:30.725Z,4.50
2023-06-03T06:28:32.660Z,4.97
2023-06-03T06:29:34.583Z,5.33
2023-06-03T06:30:36.409Z,6.10
2023-06-03T06:31:38.143Z,4.67
2023-06-03T06:32:45.758Z,5.00
2023-06-03T06:33:49.523Z,4.70
2023-06-03T06:34:52.843Z,4.87
2023-06-03T06:35:54.433Z,4.90
2023-06-03T06:36:56.269Z,4.70
2023-06-03T06:37:58.392Z,4.73
2023-06-03T06:39:01.132Z,5.17
2023-06-03T06:40:03.029Z,3.93
2023-06-03T06:41:04.946Z,4.83
2023-06-03T06:42:06.792Z,4.83
2023-06-03T06:43:13.390Z,5.27
2023-06-03T06:44:15.074Z,4.93
2023-06-03T06:45:16.976Z,4.67
2023-06-03T06:46:18.911Z,4.50
2023-06-03T06:47:24.702Z,4.17
2023-06-03T06:48:26.331Z,5.33
2023-06-03T06:49:27.857Z,4.60
2023-06-03T06:50:48.363Z,4.47
2023-06-03T06:51:51.161Z,4.47
2023-06-03T06:52:52.844Z,5.07
2023-06-03T06:53:54.512Z,5.10
2023-06-03T06:54:56.594Z,4.60
2023-06-03T06:56:06.793Z,3.90
2023-06-03T06:57:08.497Z,4.07
2023-06-03T06:58:13.426Z,4.30
2023-06-03T06:59:15.050Z,3.97
2023-06-03T07:00:16.727Z,4.07
2023-06-03T07:01:18.474Z,4.87
2023-06-03T07:02:21.043Z,4.70
2023-06-03T07:03:22.783Z,3.93
2023-06-03T07:04:24.598Z,4.80
2023-06-03T07:05:27.443Z,4.00
2023-06-03T07:06:29.223Z,4.30
2023-06-03T07:07:34.636Z,4.00
2023-06-03T07:08:36.536Z,4.53
2023-06-03T07:09:39.302Z,3.47
2023-06-03T07:10:41.135Z,4.67
2023-06-03T07:11:46.550Z,3.70
2023-06-03T07:12:52.551Z,3.83
2023-06-03T07:13:54.297Z,4.80
2023-06-03T07:15:00.991Z,4.70
2023-06-03T07:16:04.402Z,4.50
2023-06-03T07:17:06.957Z,4.90
2023-06-03T07:18:13.126Z,7.17
2023-06-03T07:19:15.116Z,5.47
2023-06-03T07:20:35.680Z,4.60
2023-06-03T07:21:37.702Z,4.60
2023-06-03T07:22:41.986Z,3.70
2023-06-03T07:23:46.559Z,4.20
2023-06-03T07:24:48.415Z,4.03
2023-06-03T07:25:51.246Z,4.37
2023-06-03T07:26:53.053Z,5.07
2023-06-03T07:27:54.805Z,4.10
2023-06-03T07:28:59.330Z,4.77
2023-06-03T07:30:01.900Z,4.80
2023-06-03T07:31:08.267Z,4.47
2023-06-03T07:32:10.499Z,4.37
2023-06-03T07:33:28.540Z,4.60
2023-06-03T07:34:30.194Z,3.77
2023-06-03T07:35:33.027Z,5.53
2023-06-03T07:36:34.668Z,4.47
2023-06-03T07:37:36.555Z,4.37
2023-06-03T07:38:38.826Z,3.77
2023-06-03T07:39:40.594Z,4.90
2023-06-03T07:40:43.119Z,4.60
2023-06-03T07:41:45.669Z,4.00
2023-06-03T07:42:49.554Z,3.63
2023-06-03T07:43:51.052Z,6.70
2023-06-03T07:44:55.248Z,4.43
2023-06-03T07:45:57.057Z,4.30
2023-06-03T07:47:01.633Z,4.30
2023-06-03T07:48:04.319Z,4.70
2023-06-03T07:49:08.248Z,4.30
2023-06-03T07:50:18.907Z,4.63
2023-06-03T07:51:20.882Z,4.57
2023-06-03T07:52:22.837Z,3.70
2023-06-03T07:53:25.530Z,3.80
2023-06-03T07:54:30.560Z,4.23
2023-06-03T07:55:40.233Z,4.70
2023-06-03T07:56:42.117Z,3.83
2023-06-03T07:57:46.582Z,4.30
2023-06-03T07:58:48.364Z,4.30
2023-06-03T07:59:52.911Z,3.80
2023-06-03T08:02:38.452Z,3.70
2023-06-03T08:03:40.159Z,4.13
2023-06-03T08:04:43.228Z,3.77
2023-06-03T08:05:45.371Z,3.77
2023-06-03T08:06:48.388Z,4.40
2023-06-03T08:07:50.001Z,4.13
2023-06-03T08:08:52.401Z,3.80
2023-06-03T08:09:54.152Z,3.90
2023-06-03T08:10:55.835Z,3.70
2023-06-03T08:11:57.998Z,3.80
2023-06-03T08:13:00.495Z,3.97
2023-06-03T08:14:02.585Z,4.57
2023-06-03T08:15:04.372Z,7.80
2023-06-03T08:16:06.850Z,5.93
2023-06-03T08:17:12.382Z,5.10
2023-06-03T08:18:21.046Z,4.13
2023-06-03T08:19:23.624Z,4.37
2023-06-03T08:20:28.781Z,3.80
2023-06-03T08:21:31.297Z,4.20
2023-06-03T08:22:44.737Z,4.20
2023-06-03T08:23:47.098Z,5.47
2023-06-03T08:24:48.782Z,5.00
2023-06-03T08:25:51.059Z,3.83
2023-06-03T08:26:52.786Z,3.90
2023-06-03T08:27:54.857Z,4.50
2023-06-03T08:28:56.982Z,3.90
2023-06-03T08:29:58.954Z,4.00
2023-06-03T08:31:00.877Z,4.17
2023-06-03T08:32:02.846Z,3.93
2023-06-03T08:33:04.628Z,5.10
2023-06-03T08:34:06.351Z,5.13
2023-06-03T08:35:10.563Z,4.70
2023-06-03T08:36:12.408Z,4.23
2023-06-03T08:37:14.122Z,3.80
2023-06-03T08:38:17.578Z,4.40
2023-06-03T08:39:19.289Z,4.07
2023-06-03T08:40:24.421Z,5.83
2023-06-03T08:41:26.526Z,4.40
2023-06-03T08:42:35.388Z,4.40
2023-06-03T08:43:44.330Z,3.93
2023-06-03T08:44:51.610Z,3.93
2023-06-03T08:45:56.789Z,4.27
2023-06-03T08:47:24.704Z,4.13
2023-06-03T08:48:32.266Z,3.90
2023-06-03T08:49:57.145Z,4.43
2023-06-03T08:51:04.016Z,4.43
2023-06-03T08:52:09.265Z,4.23
2023-06-03T08:53:13.012Z,3.73
2023-06-03T08:54:19.023Z,4.10
2023-06-03T08:55:21.551Z,3.80
2023-06-03T08:56:24.038Z,4.10
2023-06-03T08:57:26.183Z,4.20
2023-06-03T08:58:32.776Z,4.03
2023-06-03T08:59:35.683Z,4.00
2023-06-03T09:00:37.978Z,4.80
2023-06-03T09:01:40.122Z,3.97
2023-06-03T09:02:41.781Z,4.15
2023-06-03T09:03:44.299Z,3.90
2023-06-03T09:04:48.548Z,3.72
2023-06-03T09:05:51.015Z,4.07
2023-06-03T09:06:52.968Z,3.67
2023-06-03T09:07:55.433Z,4.40
2023-06-03T09:08:58.434Z,4.37
2023-06-03T09:10:02.698Z,4.03
2023-06-03T09:11:06.801Z,4.27
2023-06-03T09:12:09.152Z,4.90
2023-06-03T09:13:11.049Z,4.40
2023-06-03T09:14:13.779Z,4.50
2023-06-03T09:15:15.556Z,3.57
2023-06-03T09:16:18.862Z,3.63
2023-06-03T09:17:21.021Z,4.40
2023-06-03T09:18:23.377Z,3.63
2023-06-03T09:19:27.347Z,4.33
2023-06-03T09:20:29.090Z,4.10
2023-06-03T09:21:31.267Z,4.43
2023-06-03T09:22:34.935Z,4.47
2023-06-03T09:23:37.731Z,4.27
2023-06-03T09:24:39.962Z,4.00
2023-06-03T09:25:41.629Z,4.47
2023-06-03T09:26:43.470Z,4.53
2023-06-03T09:27:45.338Z,4.13
2023-06-03T09:28:47.709Z,3.97
2023-06-03T09:29:49.561Z,4.63
2023-06-03T09:30:51.378Z,4.17
2023-06-03T09:31:53.207Z,5.13
2023-06-03T09:32:55.045Z,3.90
2023-06-03T09:33:56.917Z,5.20
2023-06-03T09:34:59.145Z,4.70
2023-06-03T09:36:06.776Z,5.33
2023-06-03T09:37:09.523Z,4.30
2023-06-03T09:38:11.332Z,4.67
2023-06-03T09:39:17.936Z,5.33
2023-06-03T09:40:26.919Z,5.33
2023-06-03T09:41:28.834Z,5.20
2023-06-03T09:42:44.334Z,5.07
2023-06-03T09:43:59.016Z,4.87
2023-06-03T09:45:00.632Z,4.83
2023-06-03T09:46:11.257Z,5.00
2023-06-03T09:47:13.603Z,5.20
2023-06-03T09:48:23.869Z,4.67
2023-06-03T09:49:38.522Z,5.43
2023-06-03T09:50:51.353Z,5.60
2023-06-03T09:51:53.069Z,4.80
2023-06-03T09:52:58.195Z,5.40
2023-06-03T09:54:13.466Z,5.57
2023-06-03T09:55:16.049Z,5.67
2023-06-03T09:56:28.219Z,5.17
2023-06-03T09:57:30.355Z,4.70
2023-06-03T09:58:32.031Z,4.57
2023-06-03T09:59:33.880Z,4.93
2023-06-03T10:00:52.667Z,4.50
2023-06-03T10:01:55.305Z,4.33
2023-06-03T10:03:09.734Z,4.90
2023-06-03T10:04:11.996Z,4.80
2023-06-03T10:05:25.807Z,5.20
2023-06-03T10:06:27.972Z,4.60
2023-06-03T10:07:29.844Z,5.03
2023-06-03T10:08:32.044Z,4.90
2023-06-03T10:09:34.305Z,5.10
2023-06-03T10:10:36.697Z,4.60
2023-06-03T10:11:51.722Z,4.13
2023-06-03T10:12:53.410Z,4.00
2023-06-03T10:14:07.593Z,5.80
2023-06-03T10:15:10.006Z,5.40
2023-06-03T10:16:12.387Z,5.03
2023-06-03T10:17:14.666Z,5.83
2023-06-03T10:18:17.024Z,5.90
2023-06-03T10:19:23.951Z,5.50
2023-06-03T10:20:38.109Z,5.30
2023-06-03T10:21:41.468Z,4.00
2023-06-03T10:22:43.842Z,4.97
2023-06-03T10:23:45.785Z,4.57
2023-06-03T10:24:48.801Z,4.33
2023-06-03T10:25:53.876Z,4.43
2023-06-03T10:26:56.167Z,5.07
2023-06-03T10:27:58.100Z,4.80
2023-06-03T10:29:00.174Z,4.73
2023-06-03T10:30:02.974Z,4.97
2023-06-03T10:31:06.111Z,5.60
2023-06-03T10:32:08.515Z,4.70
2023-06-03T10:33:10.552Z,5.70
2023-06-03T10:34:15.464Z,4.90
2023-06-03T10:35:17.226Z,5.37
2023-06-03T10:36:20.160Z,5.33
2023-06-03T10:37:24.023Z,5.30
2023-06-03T10:38:25.759Z,4.90
2023-06-03T10:39:28.119Z,4.70
2023-06-03T10:40:29.968Z,4.67
2023-06-03T10:41:31.807Z,4.37
2023-06-03T10:42:35.006Z,5.33
2023-06-03T10:43:38.319Z,4.20
2023-06-03T10:44:40.423Z,4.70
2023-06-03T10:45:42.389Z,5.10
2023-06-03T10:46:47.275Z,5.20
2023-06-03T10:47:50.290Z,5.27
2023-06-03T10:48:52.360Z,5.30
2023-06-03T10:50:00.388Z,5.50
2023-06-03T10:51:02.066Z,5.10
2023-06-03T10:52:13.357Z,4.77
2023-06-03T10:53:34.591Z,5.27
2023-06-03T10:54:52.823Z,4.97
2023-06-03T10:56:03.692Z,5.20
2023-06-03T10:57:07.959Z,4.73
2023-06-03T10:58:20.107Z,5.17
2023-06-03T10:59:25.342Z,4.60
2023-06-03T11:00:46.455Z,5.17
2023-06-03T11:01:59.141Z,4.50
2023-06-03T11:03:08.183Z,4.43
2023-06-03T11:04:09.908Z,5.13
2023-06-03T11:05:24.732Z,4.77
2023-06-03T11:06:30.153Z,5.07
2023-06-03T11:07:32.192Z,4.57
2023-06-03T11:08:52.638Z,5.30
2023-06-03T11:09:55.871Z,5.33
2023-06-03T11:10:57.549Z,4.83
2023-06-03T11:12:04.353Z,5.23
2023-06-03T11:13:06.421Z,5.20
2023-06-03T11:14:08.609Z,5.23
2023-06-03T11:15:10.271Z,5.47
2023-06-03T11:16:11.986Z,5.20
2023-06-03T11:17:14.695Z,5.10
2023-06-03T11:18:17.344Z,4.80
2023-06-03T11:19:28.088Z,4.33
2023-06-03T11:20:41.576Z,4.60
2023-06-03T11:21:49.921Z,5.43
2023-06-03T11:22:51.704Z,5.23
2023-06-03T11:23:53.310Z,5.00
2023-06-03T11:24:55.685Z,4.60
2023-06-03T11:25:57.361Z,5.13
2023-06-03T11:26:58.962Z,5.10
2023-06-03T11:28:19.799Z,4.63
2023-06-03T11:29:40.260Z,5.10
2023-06-03T11:30:56.380Z,4.73
2023-06-03T11:32:12.333Z,5.00
2023-06-03T11:33:14.285Z,4.40
2023-06-03T11:34:23.187Z,5.07
2023-06-03T11:35:28.832Z,4.30
2023-06-03T11:36:46.720Z,6.10
2023-06-03T11:37:48.825Z,4.67
2023-06-03T11:39:00.354Z,5.23
2023-06-03T11:40:09.081Z,4.60
2023-06-03T11:41:10.728Z,4.17
2023-06-03T11:42:12.684Z,5.07
2023-06-03T11:43:14.612Z,5.30
2023-06-03T11:45:30.791Z,5.47
2023-06-03T11:46:32.545Z,5.60
2023-06-03T11:47:50.643Z,5.23
2023-06-03T11:48:53.455Z,5.03
2023-06-03T11:49:55.730Z,5.30
2023-06-03T11:51:03.255Z,4.77
2023-06-03T11:52:07.131Z,5.37
2023-06-03T11:53:08.990Z,5.30
2023-06-03T11:54:12.750Z,4.93
2023-06-03T11:55:23.628Z,4.90
2023-06-03T11:56:26.579Z,5.70
2023-06-03T11:57:31.472Z,4.63
2023-06-03T11:58:33.440Z,5.20
2023-06-03T11:59:38.304Z,5.60
2023-06-03T12:00:40.105Z,4.90
2023-06-03T12:02:00.094Z,5.40
2023-06-03T12:03:01.842Z,4.60
2023-06-03T12:04:04.083Z,4.80
2023-06-03T12:05:06.848Z,4.73
2023-06-03T12:06:08.696Z,5.23
2023-06-03T12:07:11.490Z,5.03
2023-06-03T12:08:13.470Z,4.53
2023-06-03T12:09:19.503Z,4.80
2023-06-03T12:10:21.418Z,4.60
2023-06-03T12:11:30.005Z,4.77
2023-06-03T12:12:31.883Z,5.20
2023-06-03T12:13:42.696Z,5.10
2023-06-03T12:14:46.161Z,4.77
2023-06-03T12:15:51.166Z,4.70
2023-06-03T12:16:53.391Z,4.40
2023-06-03T12:17:55.156Z,4.90
2023-06-03T12:18:56.809Z,4.83
2023-06-03T12:20:00.365Z,4.45
2023-06-03T12:21:21.103Z,4.70
2023-06-03T12:22:23.478Z,4.77
2023-06-03T12:23:25.510Z,4.70
2023-06-03T12:24:28.828Z,4.23
2023-06-03T12:25:30.677Z,4.40
2023-06-03T12:26:38.628Z,4.60
2023-06-03T12:27:40.284Z,5.13
2023-06-03T12:28:41.792Z,4.50
2023-06-03T12:29:46.683Z,4.47
2023-06-03T12:30:48.225Z,5.00
2023-06-03T12:32:00.321Z,4.60
2023-06-03T12:33:02.098Z,5.37
2023-06-03T12:34:04.300Z,4.63
2023-06-03T12:35:12.561Z,4.60
2023-06-03T12:36:14.823Z,4.73
2023-06-03T12:37:28.348Z,4.60
2023-06-03T12:38:30.120Z,5.00
2023-06-03T12:39:49.405Z,4.93
2023-06-03T12:40:54.228Z,4.57
2023-06-03T12:41:56.472Z,4.47
2023-06-03T12:43:01.936Z,4.75
2023-06-03T12:44:04.528Z,4.80
2023-06-03T12:45:07.154Z,3.85
2023-06-03T12:46:19.074Z,4.93
2023-06-03T12:47:22.249Z,5.00
2023-06-03T12:48:31.966Z,4.38
2023-06-03T12:49:34.116Z,4.60
2023-06-03T12:50:37.759Z,4.67
2023-06-03T12:51:39.545Z,4.73
2023-06-03T12:52:42.365Z,4.40
2023-06-03T12:53:46.807Z,5.10
2023-06-03T12:54:51.930Z,4.72
2023-06-03T12:55:53.969Z,4.40
2023-06-03T12:56:55.875Z,3.60
2023-06-03T12:57:58.061Z,4.72
2023-06-03T12:59:00.125Z,4.53
2023-06-03T13:00:16.810Z,5.22
2023-06-03T13:01:19.239Z,5.25
2023-06-03T13:02:21.738Z,4.35
2023-06-03T13:03:23.700Z,4.85
2023-06-03T13:04:25.715Z,4.05
2023-06-03T13:05:27.818Z,4.57
2023-06-03T13:06:29.706Z,4.30
2023-06-03T13:07:31.552Z,4.40
2023-06-03T13:08:33.192Z,5.40
2023-06-03T13:09:34.920Z,4.40
2023-06-03T13:10:37.344Z,4.85
2023-06-03T13:11:39.770Z,5.03
2023-06-03T13:12:41.798Z,5.10
2023-06-03T13:13:43.439Z,4.72
2023-06-03T13:14:45.567Z,5.05
2023-06-03T13:15:47.686Z,4.85
2023-06-03T13:16:49.364Z,4.68
2023-06-03T13:17:51.068Z,4.82
2023-06-03T13:18:52.653Z,4.68
2023-06-03T13:19:54.538Z,4.77
2023-06-03T13:20:56.330Z,4.10
2023-06-03T13:21:58.177Z,4.55
2023-06-03T13:22:59.874Z,4.57
2023-06-03T13:24:01.481Z,5.07
2023-06-03T13:25:03.235Z,4.88
2023-06-03T13:26:04.845Z,4.53
2023-06-03T13:27:06.690Z,4.28
2023-06-03T13:28:12.796Z,6.07
2023-06-03T13:29:15.639Z,5.30
2023-06-03T13:30:17.613Z,5.15
2023-06-03T13:31:19.546Z,4.85
2023-06-03T13:32:23.026Z,4.95
2023-06-03T13:33:25.826Z,4.95
2023-06-03T13:34:27.871Z,4.72
2023-06-03T13:35:29.801Z,5.03
2023-06-03T13:36:31.555Z,4.38
2023-06-03T13:37:33.296Z,4.65
2023-06-03T13:38:34.962Z,4.97
2023-06-03T13:39:38.156Z,4.95
2023-06-03T13:40:40.441Z,5.07
2023-06-03T13:41:42.157Z,4.83
2023-06-03T13:42:44.647Z,4.87
2023-06-03T13:43:46.464Z,4.70
2023-06-03T13:44:48.420Z,5.63
2023-06-03T13:45:50.733Z,5.37
2023-06-03T13:46:53.466Z,5.60
2023-06-03T13:47:55.381Z,4.97
2023-06-03T13:48:57.027Z,5.90
2023-06-03T13:49:58.794Z,5.10
2023-06-03T13:51:01.230Z,4.80
2023-06-03T13:52:03.594Z,5.30
2023-06-03T13:53:06.075Z,6.10
2023-06-03T13:54:07.754Z,5.10
2023-06-03T13:55:09.511Z,5.93
2023-06-03T13:56:11.051Z,5.60
2023-06-03T13:57:14.361Z,5.50
2023-06-03T13:58:16.487Z,5.07
2023-06-03T13:59:18.081Z,5.23
2023-06-03T14:00:19.720Z,5.10
2023-06-03T14:01:21.643Z,4.60
2023-06-03T14:02:23.501Z,4.43
2023-06-03T14:03:25.263Z,4.13
2023-06-03T14:04:26.884Z,4.82
2023-06-03T14:05:28.682Z,4.97
2023-06-03T14:06:30.566Z,4.75
2023-06-03T14:07:32.340Z,4.60
2023-06-03T14:08:34.746Z,4.40
2023-06-03T14:09:37.443Z,5.10
2023-06-03T14:10:41.899Z,4.70
2023-06-03T14:11:44.283Z,5.97